LFKF/FSC METAR and TAF weather

Enter ICAO airport designator
Station Type Date Time Source
LFKF METAR 2022/01/25 05:30 UTC NOAA

LFKF 250530Z AUTO VRB03KT CAVOK 01/01 Q1032 NOSIG


Station Type Date Time Source
LFKF Decoded METAR 2022/01/25 05:30 UTC NOAA

Figari, France (LFKF) 41-30N 009-06E 23M
Jan 25, 2022 - 12:30 AM EST / 2022.01.25 0530 UTC
Wind: Variable at 3 MPH (3 KT):0
Visibility: greater than 7 mile(s):0
Temperature: 33 F (1 C)
Dew Point: 33 F (1 C)
Relative Humidity: 100%
Pressure (altimeter): 30.47 in. Hg (1032 hPa)
ob: LFKF 250530Z AUTO VRB03KT CAVOK 01/01 Q1032 NOSIG
cycle: 5

Station Type Date Time Source
LFKF TAF 2022/01/25 03:44 UTC NOAA

TAF LFKF 250200Z 2503/2603 04005KT CAVOK PROB40
TEMPO 2509/2515 BKN028
BECMG 2511/2513 26010KT

Example: see airport list